sensor_id;sensor_type;location;lat;lon;timestamp;P1;durP1;ratioP1;P2;durP2;ratioP2
21777;SDS011;11050;52.222;20.916;2023-08-07T00:00:52;3.13;;;0.70;;
21777;SDS011;11050;52.222;20.916;2023-08-07T00:03:18;1.05;;;0.63;;
21777;SDS011;11050;52.222;20.916;2023-08-07T00:05:47;0.77;;;0.50;;
21777;SDS011;11050;52.222;20.916;2023-08-07T00:08:13;0.95;;;0.60;;
21777;SDS011;11050;52.222;20.916;2023-08-07T00:10:39;1.67;;;0.70;;
21777;SDS011;11050;52.222;20.916;2023-08-07T00:13:05;2.13;;;0.70;;
21777;SDS011;11050;52.222;20.916;2023-08-07T00:15:31;0.40;;;0.40;;
21777;SDS011;11050;52.222;20.916;2023-08-07T00:17:58;0.85;;;0.60;;
21777;SDS011;11050;52.222;20.916;2023-08-07T00:20:24;0.40;;;0.40;;
21777;SDS011;11050;52.222;20.916;2023-08-07T00:22:50;2.00;;;0.52;;
21777;SDS011;11050;52.222;20.916;2023-08-07T00:25:16;1.77;;;1.00;;
21777;SDS011;11050;52.222;20.916;2023-08-07T00:27:42;0.73;;;0.70;;
21777;SDS011;11050;52.222;20.916;2023-08-07T00:30:08;2.25;;;0.90;;
21777;SDS011;11050;52.222;20.916;2023-08-07T00:32:34;1.63;;;0.82;;
21777;SDS011;11050;52.222;20.916;2023-08-07T00:35:00;1.00;;;0.90;;
21777;SDS011;11050;52.222;20.916;2023-08-07T00:37:26;1.40;;;1.13;;
21777;SDS011;11050;52.222;20.916;2023-08-07T00:39:51;0.80;;;0.80;;
21777;SDS011;11050;52.222;20.916;2023-08-07T00:42:17;1.15;;;1.05;;
21777;SDS011;11050;52.222;20.916;2023-08-07T00:44:43;2.05;;;1.20;;
21777;SDS011;11050;52.222;20.916;2023-08-07T00:47:09;3.45;;;1.20;;
21777;SDS011;11050;52.222;20.916;2023-08-07T00:49:35;3.55;;;1.70;;
21777;SDS011;11050;52.222;20.916;2023-08-07T00:52:01;2.05;;;1.40;;
21777;SDS011;11050;52.222;20.916;2023-08-07T00:54:27;2.00;;;1.80;;
21777;SDS011;11050;52.222;20.916;2023-08-07T00:56:54;1.75;;;1.65;;
21777;SDS011;11050;52.222;20.916;2023-08-07T00:59:21;2.17;;;1.50;;
21777;SDS011;11050;52.222;20.916;2023-08-07T01:01:47;3.70;;;2.15;;
21777;SDS011;11050;52.222;20.916;2023-08-07T01:04:14;2.72;;;1.90;;
21777;SDS011;11050;52.222;20.916;2023-08-07T01:06:40;2.30;;;2.00;;
21777;SDS011;11050;52.222;20.916;2023-08-07T01:09:06;2.72;;;2.10;;
21777;SDS011;11050;52.222;20.916;2023-08-07T01:11:36;2.78;;;1.83;;
21777;SDS011;11050;52.222;20.916;2023-08-07T01:16:58;3.42;;;2.15;;
21777;SDS011;11050;52.222;20.916;2023-08-07T01:19:33;3.03;;;2.08;;
21777;SDS011;11050;52.222;20.916;2023-08-07T01:24:34;3.65;;;2.60;;
21777;SDS011;11050;52.222;20.916;2023-08-07T01:35:20;3.75;;;2.40;;
21777;SDS011;11050;52.222;20.916;2023-08-07T01:37:51;3.05;;;2.30;;
21777;SDS011;11050;52.222;20.916;2023-08-07T01:40:21;2.88;;;2.22;;
21777;SDS011;11050;52.222;20.916;2023-08-07T01:42:48;3.28;;;2.25;;
21777;SDS011;11050;52.222;20.916;2023-08-07T01:45:21;4.88;;;2.08;;
21777;SDS011;11050;52.222;20.916;2023-08-07T01:47:52;2.53;;;2.33;;
21777;SDS011;11050;52.222;20.916;2023-08-07T01:50:18;2.50;;;2.30;;
21777;SDS011;11050;52.222;20.916;2023-08-07T01:52:45;3.03;;;2.60;;
21777;SDS011;11050;52.222;20.916;2023-08-07T01:55:12;2.92;;;2.63;;
21777;SDS011;11050;52.222;20.916;2023-08-07T01:57:40;3.25;;;2.05;;
21777;SDS011;11050;52.222;20.916;2023-08-07T02:00:06;2.63;;;2.05;;
21777;SDS011;11050;52.222;20.916;2023-08-07T02:02:33;2.95;;;1.88;;
21777;SDS011;11050;52.222;20.916;2023-08-07T02:05:00;3.92;;;1.75;;
21777;SDS011;11050;52.222;20.916;2023-08-07T02:07:25;1.73;;;1.63;;
21777;SDS011;11050;52.222;20.916;2023-08-07T02:09:51;3.03;;;1.85;;
21777;SDS011;11050;52.222;20.916;2023-08-07T02:12:17;1.90;;;1.80;;
21777;SDS011;11050;52.222;20.916;2023-08-07T02:14:43;2.58;;;2.30;;
21777;SDS011;11050;52.222;20.916;2023-08-07T02:17:08;3.13;;;2.30;;
21777;SDS011;11050;52.222;20.916;2023-08-07T02:19:34;3.40;;;2.30;;
21777;SDS011;11050;52.222;20.916;2023-08-07T02:22:00;4.45;;;2.15;;
21777;SDS011;11050;52.222;20.916;2023-08-07T02:24:27;3.17;;;2.20;;
21777;SDS011;11050;52.222;20.916;2023-08-07T02:26:52;2.25;;;2.00;;
21777;SDS011;11050;52.222;20.916;2023-08-07T02:29:18;5.40;;;2.20;;
21777;SDS011;11050;52.222;20.916;2023-08-07T02:31:44;2.33;;;2.13;;
21777;SDS011;11050;52.222;20.916;2023-08-07T02:34:09;3.33;;;2.60;;
21777;SDS011;11050;52.222;20.916;2023-08-07T02:36:35;4.60;;;2.35;;
21777;SDS011;11050;52.222;20.916;2023-08-07T02:39:01;3.65;;;2.22;;
21777;SDS011;11050;52.222;20.916;2023-08-07T02:41:27;2.13;;;1.88;;
21777;SDS011;11050;52.222;20.916;2023-08-07T02:43:53;1.60;;;1.50;;
21777;SDS011;11050;52.222;20.916;2023-08-07T02:46:18;3.03;;;1.63;;
21777;SDS011;11050;52.222;20.916;2023-08-07T02:48:44;4.80;;;1.98;;
21777;SDS011;11050;52.222;20.916;2023-08-07T02:51:10;1.70;;;1.60;;
21777;SDS011;11050;52.222;20.916;2023-08-07T02:53:36;2.60;;;1.77;;
21777;SDS011;11050;52.222;20.916;2023-08-07T02:56:01;2.97;;;1.60;;
21777;SDS011;11050;52.222;20.916;2023-08-07T02:58:27;1.60;;;1.50;;
21777;SDS011;11050;52.222;20.916;2023-08-07T03:00:53;2.75;;;1.85;;
21777;SDS011;11050;52.222;20.916;2023-08-07T03:03:19;2.65;;;1.50;;
21777;SDS011;11050;52.222;20.916;2023-08-07T03:05:51;2.50;;;1.70;;
21777;SDS011;11050;52.222;20.916;2023-08-07T03:08:17;2.75;;;1.80;;
21777;SDS011;11050;52.222;20.916;2023-08-07T03:10:52;2.30;;;2.10;;
21777;SDS011;11050;52.222;20.916;2023-08-07T03:13:20;2.25;;;2.05;;
21777;SDS011;11050;52.222;20.916;2023-08-07T03:15:47;2.85;;;1.77;;
21777;SDS011;11050;52.222;20.916;2023-08-07T03:18:15;4.40;;;2.17;;
21777;SDS011;11050;52.222;20.916;2023-08-07T03:20:43;3.20;;;2.40;;
21777;SDS011;11050;52.222;20.916;2023-08-07T03:23:10;1.92;;;1.83;;
21777;SDS011;11050;52.222;20.916;2023-08-07T03:25:36;2.88;;;2.38;;
21777;SDS011;11050;52.222;20.916;2023-08-07T03:28:02;2.05;;;1.90;;
21777;SDS011;11050;52.222;20.916;2023-08-07T03:30:28;2.38;;;2.17;;
21777;SDS011;11050;52.222;20.916;2023-08-07T03:32:54;2.97;;;2.10;;
21777;SDS011;11050;52.222;20.916;2023-08-07T03:35:20;2.63;;;2.42;;
21777;SDS011;11050;52.222;20.916;2023-08-07T03:37:45;3.75;;;2.40;;
21777;SDS011;11050;52.222;20.916;2023-08-07T03:40:11;3.35;;;2.45;;
21777;SDS011;11050;52.222;20.916;2023-08-07T03:42:37;3.30;;;2.33;;
21777;SDS011;11050;52.222;20.916;2023-08-07T03:45:03;4.45;;;2.85;;
21777;SDS011;11050;52.222;20.916;2023-08-07T03:47:29;4.80;;;2.75;;
21777;SDS011;11050;52.222;20.916;2023-08-07T03:49:54;4.93;;;2.88;;
21777;SDS011;11050;52.222;20.916;2023-08-07T03:52:20;7.28;;;2.70;;
21777;SDS011;11050;52.222;20.916;2023-08-07T03:54:46;3.33;;;2.47;;
21777;SDS011;11050;52.222;20.916;2023-08-07T03:57:11;4.80;;;2.67;;
21777;SDS011;11050;52.222;20.916;2023-08-07T03:59:37;2.90;;;2.70;;
21777;SDS011;11050;52.222;20.916;2023-08-07T04:02:03;2.95;;;2.47;;
21777;SDS011;11050;52.222;20.916;2023-08-07T04:04:29;3.38;;;2.70;;
21777;SDS011;11050;52.222;20.916;2023-08-07T04:06:55;3.08;;;2.53;;
21777;SDS011;11050;52.222;20.916;2023-08-07T04:09:21;3.05;;;2.13;;
21777;SDS011;11050;52.222;20.916;2023-08-07T04:11:46;4.03;;;2.30;;
21777;SDS011;11050;52.222;20.916;2023-08-07T04:14:12;4.20;;;2.53;;
21777;SDS011;11050;52.222;20.916;2023-08-07T04:16:38;2.92;;;2.47;;
21777;SDS011;11050;52.222;20.916;2023-08-07T04:19:03;3.20;;;2.20;;
21777;SDS011;11050;52.222;20.916;2023-08-07T04:21:31;2.10;;;1.92;;
21777;SDS011;11050;52.222;20.916;2023-08-07T04:23:57;2.25;;;2.05;;
21777;SDS011;11050;52.222;20.916;2023-08-07T04:26:25;2.40;;;2.20;;
21777;SDS011;11050;52.222;20.916;2023-08-07T04:28:51;2.65;;;2.17;;
21777;SDS011;11050;52.222;20.916;2023-08-07T04:31:17;2.33;;;1.77;;
21777;SDS011;11050;52.222;20.916;2023-08-07T04:33:43;3.17;;;1.88;;
21777;SDS011;11050;52.222;20.916;2023-08-07T04:36:09;3.58;;;1.77;;
21777;SDS011;11050;52.222;20.916;2023-08-07T04:38:35;1.92;;;1.73;;
21777;SDS011;11050;52.222;20.916;2023-08-07T04:41:01;2.40;;;1.83;;
21777;SDS011;11050;52.222;20.916;2023-08-07T04:43:28;1.50;;;1.40;;
21777;SDS011;11050;52.222;20.916;2023-08-07T04:45:54;1.63;;;1.52;;
21777;SDS011;11050;52.222;20.916;2023-08-07T04:48:19;2.88;;;1.50;;
21777;SDS011;11050;52.222;20.916;2023-08-07T04:50:47;3.30;;;1.25;;
21777;SDS011;11050;52.222;20.916;2023-08-07T04:53:13;1.15;;;0.98;;
21777;SDS011;11050;52.222;20.916;2023-08-07T04:55:39;2.63;;;1.50;;
21777;SDS011;11050;52.222;20.916;2023-08-07T04:58:05;3.58;;;1.40;;
21777;SDS011;11050;52.222;20.916;2023-08-07T05:00:30;1.70;;;1.05;;
21777;SDS011;11050;52.222;20.916;2023-08-07T05:02:56;1.70;;;1.30;;
21777;SDS011;11050;52.222;20.916;2023-08-07T05:05:22;3.05;;;1.60;;
21777;SDS011;11050;52.222;20.916;2023-08-07T05:07:48;3.15;;;1.50;;
21777;SDS011;11050;52.222;20.916;2023-08-07T05:10:14;2.40;;;1.27;;
21777;SDS011;11050;52.222;20.916;2023-08-07T05:12:40;3.38;;;1.50;;
21777;SDS011;11050;52.222;20.916;2023-08-07T05:15:06;2.70;;;1.80;;
21777;SDS011;11050;52.222;20.916;2023-08-07T05:17:32;3.00;;;1.80;;
21777;SDS011;11050;52.222;20.916;2023-08-07T05:19:58;2.15;;;1.95;;
21777;SDS011;11050;52.222;20.916;2023-08-07T05:22:24;4.10;;;1.88;;
21777;SDS011;11050;52.222;20.916;2023-08-07T05:24:49;2.53;;;1.90;;
21777;SDS011;11050;52.222;20.916;2023-08-07T05:27:15;3.10;;;2.03;;
21777;SDS011;11050;52.222;20.916;2023-08-07T05:29:41;2.60;;;2.00;;
21777;SDS011;11050;52.222;20.916;2023-08-07T05:32:13;7.50;;;2.50;;
21777;SDS011;11050;52.222;20.916;2023-08-07T05:34:40;5.65;;;2.30;;
21777;SDS011;11050;52.222;20.916;2023-08-07T05:37:06;2.97;;;2.13;;
21777;SDS011;11050;52.222;20.916;2023-08-07T05:39:33;3.45;;;2.47;;
21777;SDS011;11050;52.222;20.916;2023-08-07T05:42:00;5.03;;;2.67;;
21777;SDS011;11050;52.222;20.916;2023-08-07T05:44:26;2.35;;;2.03;;
21777;SDS011;11050;52.222;20.916;2023-08-07T05:46:53;2.67;;;2.33;;
21777;SDS011;11050;52.222;20.916;2023-08-07T05:49:18;3.00;;;2.70;;
21777;SDS011;11050;52.222;20.916;2023-08-07T05:51:45;4.18;;;3.10;;
21777;SDS011;11050;52.222;20.916;2023-08-07T05:54:11;3.80;;;2.83;;
21777;SDS011;11050;52.222;20.916;2023-08-07T05:56:37;7.82;;;3.40;;
21777;SDS011;11050;52.222;20.916;2023-08-07T05:59:03;4.85;;;3.20;;
21777;SDS011;11050;52.222;20.916;2023-08-07T06:01:29;4.20;;;2.75;;
21777;SDS011;11050;52.222;20.916;2023-08-07T06:03:59;2.92;;;2.63;;
21777;SDS011;11050;52.222;20.916;2023-08-07T06:06:26;3.33;;;3.03;;
21777;SDS011;11050;52.222;20.916;2023-08-07T06:08:53;2.75;;;2.42;;
21777;SDS011;11050;52.222;20.916;2023-08-07T06:11:19;4.05;;;2.83;;
21777;SDS011;11050;52.222;20.916;2023-08-07T06:13:45;3.80;;;2.53;;
21777;SDS011;11050;52.222;20.916;2023-08-07T06:16:11;2.63;;;2.40;;
21777;SDS011;11050;52.222;20.916;2023-08-07T06:18:37;2.92;;;2.60;;
21777;SDS011;11050;52.222;20.916;2023-08-07T06:21:03;3.13;;;2.80;;
21777;SDS011;11050;52.222;20.916;2023-08-07T06:23:35;4.53;;;2.22;;
21777;SDS011;11050;52.222;20.916;2023-08-07T06:26:00;3.28;;;2.20;;
21777;SDS011;11050;52.222;20.916;2023-08-07T06:28:29;3.63;;;1.90;;
21777;SDS011;11050;52.222;20.916;2023-08-07T06:31:05;3.17;;;2.10;;
21777;SDS011;11050;52.222;20.916;2023-08-07T06:33:33;2.30;;;1.90;;
21777;SDS011;11050;52.222;20.916;2023-08-07T06:36:00;4.63;;;1.70;;
21777;SDS011;11050;52.222;20.916;2023-08-07T06:38:27;1.83;;;1.73;;
21777;SDS011;11050;52.222;20.916;2023-08-07T06:40:53;2.47;;;1.77;;
21777;SDS011;11050;52.222;20.916;2023-08-07T06:43:18;2.03;;;1.65;;
21777;SDS011;11050;52.222;20.916;2023-08-07T06:45:50;3.70;;;2.00;;
21777;SDS011;11050;52.222;20.916;2023-08-07T06:48:20;3.13;;;1.95;;
21777;SDS011;11050;52.222;20.916;2023-08-07T06:50:47;3.13;;;2.35;;
21777;SDS011;11050;52.222;20.916;2023-08-07T06:53:14;2.78;;;1.92;;
21777;SDS011;11050;52.222;20.916;2023-08-07T06:55:43;3.30;;;2.40;;
21777;SDS011;11050;52.222;20.916;2023-08-07T06:58:10;4.78;;;2.17;;
21777;SDS011;11050;52.222;20.916;2023-08-07T07:00:36;2.30;;;2.10;;
21777;SDS011;11050;52.222;20.916;2023-08-07T07:03:02;2.20;;;2.00;;
21777;SDS011;11050;52.222;20.916;2023-08-07T07:05:29;3.20;;;1.88;;
21777;SDS011;11050;52.222;20.916;2023-08-07T07:07:57;3.30;;;2.20;;
21777;SDS011;11050;52.222;20.916;2023-08-07T07:10:23;3.13;;;1.70;;
21777;SDS011;11050;52.222;20.916;2023-08-07T07:12:49;2.35;;;1.75;;
21777;SDS011;11050;52.222;20.916;2023-08-07T07:15:15;2.55;;;2.20;;
21777;SDS011;11050;52.222;20.916;2023-08-07T07:17:41;2.13;;;1.83;;
21777;SDS011;11050;52.222;20.916;2023-08-07T07:20:07;2.83;;;1.80;;
21777;SDS011;11050;52.222;20.916;2023-08-07T07:22:34;1.83;;;1.40;;
21777;SDS011;11050;52.222;20.916;2023-08-07T07:25:00;2.85;;;1.48;;
21777;SDS011;11050;52.222;20.916;2023-08-07T07:27:26;1.70;;;1.52;;
21777;SDS011;11050;52.222;20.916;2023-08-07T07:29:52;2.08;;;1.67;;
21777;SDS011;11050;52.222;20.916;2023-08-07T07:32:18;2.58;;;1.42;;
21777;SDS011;11050;52.222;20.916;2023-08-07T07:34:44;1.70;;;1.60;;
21777;SDS011;11050;52.222;20.916;2023-08-07T07:37:10;2.20;;;1.55;;
21777;SDS011;11050;52.222;20.916;2023-08-07T07:39:36;3.95;;;1.80;;
21777;SDS011;11050;52.222;20.916;2023-08-07T07:42:01;3.78;;;1.65;;
21777;SDS011;11050;52.222;20.916;2023-08-07T07:44:29;2.95;;;1.63;;
21777;SDS011;11050;52.222;20.916;2023-08-07T07:46:56;2.60;;;1.70;;
21777;SDS011;11050;52.222;20.916;2023-08-07T07:49:24;1.70;;;1.42;;
21777;SDS011;11050;52.222;20.916;2023-08-07T07:51:50;6.10;;;2.00;;
21777;SDS011;11050;52.222;20.916;2023-08-07T07:54:16;3.15;;;2.00;;
21777;SDS011;11050;52.222;20.916;2023-08-07T07:56:42;2.55;;;1.80;;
21777;SDS011;11050;52.222;20.916;2023-08-07T07:59:08;4.32;;;1.83;;
21777;SDS011;11050;52.222;20.916;2023-08-07T08:01:34;3.72;;;1.63;;
21777;SDS011;11050;52.222;20.916;2023-08-07T08:03:59;3.22;;;2.05;;
21777;SDS011;11050;52.222;20.916;2023-08-07T08:06:25;1.40;;;1.30;;
21777;SDS011;11050;52.222;20.916;2023-08-07T08:08:51;2.97;;;1.83;;
21777;SDS011;11050;52.222;20.916;2023-08-07T08:11:17;1.63;;;1.40;;
21777;SDS011;11050;52.222;20.916;2023-08-07T08:13:42;2.20;;;1.30;;
21777;SDS011;11050;52.222;20.916;2023-08-07T08:16:08;1.50;;;1.40;;
21777;SDS011;11050;52.222;20.916;2023-08-07T08:18:34;2.53;;;1.38;;
21777;SDS011;11050;52.222;20.916;2023-08-07T08:21:00;2.17;;;1.45;;
21777;SDS011;11050;52.222;20.916;2023-08-07T08:23:25;2.88;;;1.70;;
21777;SDS011;11050;52.222;20.916;2023-08-07T08:25:51;3.10;;;1.70;;
21777;SDS011;11050;52.222;20.916;2023-08-07T08:28:17;3.92;;;1.50;;
21777;SDS011;11050;52.222;20.916;2023-08-07T08:30:43;2.92;;;1.80;;
21777;SDS011;11050;52.222;20.916;2023-08-07T08:33:09;2.78;;;1.75;;
21777;SDS011;11050;52.222;20.916;2023-08-07T08:35:37;2.58;;;2.03;;
21777;SDS011;11050;52.222;20.916;2023-08-07T08:38:03;3.22;;;1.55;;
21777;SDS011;11050;52.222;20.916;2023-08-07T08:40:30;2.85;;;1.70;;
21777;SDS011;11050;52.222;20.916;2023-08-07T08:42:56;3.35;;;1.85;;
21777;SDS011;11050;52.222;20.916;2023-08-07T08:45:26;7.38;;;1.98;;
21777;SDS011;11050;52.222;20.916;2023-08-07T08:47:57;4.50;;;1.95;;
21777;SDS011;11050;52.222;20.916;2023-08-07T08:50:30;2.63;;;1.77;;
21777;SDS011;11050;52.222;20.916;2023-08-07T08:52:58;2.47;;;1.75;;
21777;SDS011;11050;52.222;20.916;2023-08-07T08:55:27;2.92;;;1.20;;
21777;SDS011;11050;52.222;20.916;2023-08-07T08:57:53;2.15;;;1.50;;
21777;SDS011;11050;52.222;20.916;2023-08-07T09:00:19;3.67;;;1.20;;
21777;SDS011;11050;52.222;20.916;2023-08-07T09:02:47;4.40;;;1.55;;
21777;SDS011;11050;52.222;20.916;2023-08-07T09:05:14;4.55;;;1.63;;
21777;SDS011;11050;52.222;20.916;2023-08-07T09:07:42;3.08;;;1.30;;
21777;SDS011;11050;52.222;20.916;2023-08-07T09:10:11;6.28;;;1.63;;
21777;SDS011;11050;52.222;20.916;2023-08-07T09:12:40;1.80;;;1.08;;
21777;SDS011;11050;52.222;20.916;2023-08-07T09:15:23;5.03;;;1.25;;
21777;SDS011;11050;52.222;20.916;2023-08-07T09:17:50;4.50;;;1.48;;
21777;SDS011;11050;52.222;20.916;2023-08-07T09:20:19;2.13;;;1.40;;
21777;SDS011;11050;52.222;20.916;2023-08-07T09:22:45;3.95;;;1.15;;
21777;SDS011;11050;52.222;20.916;2023-08-07T09:25:11;2.28;;;1.42;;
21777;SDS011;11050;52.222;20.916;2023-08-07T09:27:38;1.42;;;1.10;;
21777;SDS011;11050;52.222;20.916;2023-08-07T09:30:06;4.45;;;1.25;;
21777;SDS011;11050;52.222;20.916;2023-08-07T09:32:36;2.17;;;1.52;;
21777;SDS011;11050;52.222;20.916;2023-08-07T09:35:02;1.85;;;1.20;;
21777;SDS011;11050;52.222;20.916;2023-08-07T09:37:30;3.53;;;1.20;;
21777;SDS011;11050;52.222;20.916;2023-08-07T09:39:56;0.95;;;0.93;;
21777;SDS011;11050;52.222;20.916;2023-08-07T09:42:24;2.10;;;1.10;;
21777;SDS011;11050;52.222;20.916;2023-08-07T09:44:50;1.30;;;0.90;;
21777;SDS011;11050;52.222;20.916;2023-08-07T09:47:17;1.95;;;0.90;;
21777;SDS011;11050;52.222;20.916;2023-08-07T09:49:44;7.00;;;1.33;;
21777;SDS011;11050;52.222;20.916;2023-08-07T09:52:11;2.17;;;1.00;;
21777;SDS011;11050;52.222;20.916;2023-08-07T09:54:40;2.00;;;0.82;;
21777;SDS011;11050;52.222;20.916;2023-08-07T09:57:06;2.03;;;1.10;;
21777;SDS011;11050;52.222;20.916;2023-08-07T09:59:33;5.00;;;1.17;;
21777;SDS011;11050;52.222;20.916;2023-08-07T10:02:02;1.02;;;0.80;;
21777;SDS011;11050;52.222;20.916;2023-08-07T10:04:29;1.73;;;1.05;;
21777;SDS011;11050;52.222;20.916;2023-08-07T10:06:56;3.25;;;1.17;;
21777;SDS011;11050;52.222;20.916;2023-08-07T10:09:23;2.08;;;1.15;;
21777;SDS011;11050;52.222;20.916;2023-08-07T10:11:51;1.20;;;0.85;;
21777;SDS011;11050;52.222;20.916;2023-08-07T10:14:17;3.30;;;1.10;;
21777;SDS011;11050;52.222;20.916;2023-08-07T10:16:43;1.67;;;1.10;;
21777;SDS011;11050;52.222;20.916;2023-08-07T10:19:11;2.45;;;1.05;;
21777;SDS011;11050;52.222;20.916;2023-08-07T10:21:40;2.47;;;1.08;;
21777;SDS011;11050;52.222;20.916;2023-08-07T10:24:09;1.42;;;0.90;;
21777;SDS011;11050;52.222;20.916;2023-08-07T10:26:37;5.63;;;1.08;;
21777;SDS011;11050;52.222;20.916;2023-08-07T10:29:10;2.80;;;1.30;;
21777;SDS011;11050;52.222;20.916;2023-08-07T10:31:43;3.13;;;1.15;;
21777;SDS011;11050;52.222;20.916;2023-08-07T10:34:11;2.42;;;1.20;;
21777;SDS011;11050;52.222;20.916;2023-08-07T10:36:37;2.50;;;0.95;;
21777;SDS011;11050;52.222;20.916;2023-08-07T10:39:09;3.63;;;1.33;;
21777;SDS011;11050;52.222;20.916;2023-08-07T10:41:41;1.58;;;1.13;;
21777;SDS011;11050;52.222;20.916;2023-08-07T10:44:20;6.40;;;1.40;;
21777;SDS011;11050;52.222;20.916;2023-08-07T10:46:51;6.70;;;1.30;;
21777;SDS011;11050;52.222;20.916;2023-08-07T10:49:39;1.55;;;1.20;;
21777;SDS011;11050;52.222;20.916;2023-08-07T10:52:09;1.25;;;1.10;;
21777;SDS011;11050;52.222;20.916;2023-08-07T10:54:40;2.47;;;1.40;;
21777;SDS011;11050;52.222;20.916;2023-08-07T10:57:12;5.93;;;1.35;;
21777;SDS011;11050;52.222;20.916;2023-08-07T10:59:44;3.25;;;1.40;;
21777;SDS011;11050;52.222;20.916;2023-08-07T11:02:30;2.35;;;1.25;;
21777;SDS011;11050;52.222;20.916;2023-08-07T11:04:58;1.10;;;1.00;;
21777;SDS011;11050;52.222;20.916;2023-08-07T11:07:25;2.58;;;1.10;;
21777;SDS011;11050;52.222;20.916;2023-08-07T11:09:53;4.05;;;1.40;;
21777;SDS011;11050;52.222;20.916;2023-08-07T11:12:19;7.03;;;1.25;;
21777;SDS011;11050;52.222;20.916;2023-08-07T11:14:49;2.88;;;1.20;;
21777;SDS011;11050;52.222;20.916;2023-08-07T11:17:14;3.55;;;1.08;;
21777;SDS011;11050;52.222;20.916;2023-08-07T11:19:41;4.47;;;1.20;;
21777;SDS011;11050;52.222;20.916;2023-08-07T11:22:07;3.50;;;1.33;;
21777;SDS011;11050;52.222;20.916;2023-08-07T11:24:33;3.17;;;1.30;;
21777;SDS011;11050;52.222;20.916;2023-08-07T11:26:59;6.40;;;1.50;;
21777;SDS011;11050;52.222;20.916;2023-08-07T11:29:25;3.67;;;1.33;;
21777;SDS011;11050;52.222;20.916;2023-08-07T11:31:51;4.22;;;1.20;;
21777;SDS011;11050;52.222;20.916;2023-08-07T11:34:17;2.45;;;1.00;;
21777;SDS011;11050;52.222;20.916;2023-08-07T11:36:44;3.70;;;1.40;;
21777;SDS011;11050;52.222;20.916;2023-08-07T11:39:11;1.38;;;1.10;;
21777;SDS011;11050;52.222;20.916;2023-08-07T11:41:38;2.63;;;1.38;;
21777;SDS011;11050;52.222;20.916;2023-08-07T11:44:07;2.33;;;1.10;;
21777;SDS011;11050;52.222;20.916;2023-08-07T11:46:33;1.50;;;1.20;;
21777;SDS011;11050;52.222;20.916;2023-08-07T11:48:59;2.90;;;1.45;;
21777;SDS011;11050;52.222;20.916;2023-08-07T11:51:26;4.75;;;1.25;;
21777;SDS011;11050;52.222;20.916;2023-08-07T11:53:53;1.90;;;1.40;;
21777;SDS011;11050;52.222;20.916;2023-08-07T11:56:22;3.17;;;1.50;;
21777;SDS011;11050;52.222;20.916;2023-08-07T11:58:48;2.35;;;1.25;;
21777;SDS011;11050;52.222;20.916;2023-08-07T12:01:25;1.45;;;1.20;;
21777;SDS011;11050;52.222;20.916;2023-08-07T12:04:08;5.35;;;1.70;;
21777;SDS011;11050;52.222;20.916;2023-08-07T12:06:35;1.42;;;1.15;;
21777;SDS011;11050;52.222;20.916;2023-08-07T12:09:05;2.97;;;1.20;;
21777;SDS011;11050;52.222;20.916;2023-08-07T12:11:37;4.55;;;1.30;;
21777;SDS011;11050;52.222;20.916;2023-08-07T12:14:03;3.10;;;1.27;;
21777;SDS011;11050;52.222;20.916;2023-08-07T12:16:32;1.92;;;1.30;;
21777;SDS011;11050;52.222;20.916;2023-08-07T12:19:00;1.38;;;1.27;;
21777;SDS011;11050;52.222;20.916;2023-08-07T12:21:26;4.07;;;1.33;;
21777;SDS011;11050;52.222;20.916;2023-08-07T12:23:56;4.15;;;1.60;;
21777;SDS011;11050;52.222;20.916;2023-08-07T12:26:24;3.03;;;1.20;;
21777;SDS011;11050;52.222;20.916;2023-08-07T12:28:49;5.35;;;1.40;;
21777;SDS011;11050;52.222;20.916;2023-08-07T12:31:16;2.90;;;1.42;;
21777;SDS011;11050;52.222;20.916;2023-08-07T12:33:42;1.67;;;1.25;;
21777;SDS011;11050;52.222;20.916;2023-08-07T12:36:08;2.53;;;1.30;;
21777;SDS011;11050;52.222;20.916;2023-08-07T12:38:35;1.60;;;1.40;;
21777;SDS011;11050;52.222;20.916;2023-08-07T12:41:01;2.88;;;1.50;;
21777;SDS011;11050;52.222;20.916;2023-08-07T12:43:28;3.10;;;1.80;;
21777;SDS011;11050;52.222;20.916;2023-08-07T12:45:54;3.05;;;1.50;;
21777;SDS011;11050;52.222;20.916;2023-08-07T12:48:20;3.42;;;1.70;;
21777;SDS011;11050;52.222;20.916;2023-08-07T12:50:45;3.63;;;1.42;;
21777;SDS011;11050;52.222;20.916;2023-08-07T12:53:11;3.25;;;1.50;;
21777;SDS011;11050;52.222;20.916;2023-08-07T12:55:37;2.65;;;1.77;;
21777;SDS011;11050;52.222;20.916;2023-08-07T12:58:03;3.25;;;1.52;;
21777;SDS011;11050;52.222;20.916;2023-08-07T13:00:28;3.15;;;1.63;;
21777;SDS011;11050;52.222;20.916;2023-08-07T13:02:54;3.55;;;1.52;;
21777;SDS011;11050;52.222;20.916;2023-08-07T13:05:21;1.85;;;1.55;;
21777;SDS011;11050;52.222;20.916;2023-08-07T13:07:47;2.33;;;1.52;;
21777;SDS011;11050;52.222;20.916;2023-08-07T13:10:14;1.58;;;1.35;;
21777;SDS011;11050;52.222;20.916;2023-08-07T13:12:43;2.15;;;1.40;;
21777;SDS011;11050;52.222;20.916;2023-08-07T13:15:12;4.93;;;1.92;;
21777;SDS011;11050;52.222;20.916;2023-08-07T13:17:40;2.00;;;1.63;;
21777;SDS011;11050;52.222;20.916;2023-08-07T13:20:08;2.25;;;1.75;;
21777;SDS011;11050;52.222;20.916;2023-08-07T13:22:37;8.90;;;2.08;;
21777;SDS011;11050;52.222;20.916;2023-08-07T13:25:06;3.40;;;1.73;;
21777;SDS011;11050;52.222;20.916;2023-08-07T13:27:33;5.10;;;1.70;;
21777;SDS011;11050;52.222;20.916;2023-08-07T13:30:00;2.63;;;1.50;;
21777;SDS011;11050;52.222;20.916;2023-08-07T13:32:26;3.13;;;1.60;;
21777;SDS011;11050;52.222;20.916;2023-08-07T13:34:52;2.88;;;1.73;;
21777;SDS011;11050;52.222;20.916;2023-08-07T13:37:19;3.05;;;1.83;;
21777;SDS011;11050;52.222;20.916;2023-08-07T13:39:45;4.40;;;1.60;;
21777;SDS011;11050;52.222;20.916;2023-08-07T13:42:13;2.78;;;1.80;;
21777;SDS011;11050;52.222;20.916;2023-08-07T13:44:39;3.00;;;1.80;;
21777;SDS011;11050;52.222;20.916;2023-08-07T13:47:04;3.00;;;1.92;;
21777;SDS011;11050;52.222;20.916;2023-08-07T13:49:31;2.00;;;1.60;;
21777;SDS011;11050;52.222;20.916;2023-08-07T13:51:57;3.72;;;1.90;;
21777;SDS011;11050;52.222;20.916;2023-08-07T13:54:23;3.88;;;2.00;;
21777;SDS011;11050;52.222;20.916;2023-08-07T13:56:49;3.08;;;1.60;;
21777;SDS011;11050;52.222;20.916;2023-08-07T13:59:15;2.80;;;1.77;;
21777;SDS011;11050;52.222;20.916;2023-08-07T14:01:41;3.13;;;1.80;;
21777;SDS011;11050;52.222;20.916;2023-08-07T14:04:07;4.18;;;1.70;;
21777;SDS011;11050;52.222;20.916;2023-08-07T14:06:33;2.60;;;1.85;;
21777;SDS011;11050;52.222;20.916;2023-08-07T14:08:59;5.43;;;2.03;;
21777;SDS011;11050;52.222;20.916;2023-08-07T14:11:24;4.38;;;1.67;;
21777;SDS011;11050;52.222;20.916;2023-08-07T14:13:55;2.92;;;1.75;;
21777;SDS011;11050;52.222;20.916;2023-08-07T14:16:22;1.83;;;1.63;;
21777;SDS011;11050;52.222;20.916;2023-08-07T14:18:48;3.10;;;1.70;;
21777;SDS011;11050;52.222;20.916;2023-08-07T14:21:14;5.22;;;1.60;;
21777;SDS011;11050;52.222;20.916;2023-08-07T14:23:39;3.47;;;1.67;;
21777;SDS011;11050;52.222;20.916;2023-08-07T14:26:11;2.85;;;1.85;;
21777;SDS011;11050;52.222;20.916;2023-08-07T14:28:37;4.65;;;2.17;;
21777;SDS011;11050;52.222;20.916;2023-08-07T14:31:06;4.53;;;2.00;;
21777;SDS011;11050;52.222;20.916;2023-08-07T14:33:33;5.78;;;2.50;;
21777;SDS011;11050;52.222;20.916;2023-08-07T14:35:59;4.05;;;2.00;;
21777;SDS011;11050;52.222;20.916;2023-08-07T14:38:25;3.15;;;2.10;;
21777;SDS011;11050;52.222;20.916;2023-08-07T14:40:51;5.07;;;1.95;;
21777;SDS011;11050;52.222;20.916;2023-08-07T14:43:17;4.85;;;2.10;;
21777;SDS011;11050;52.222;20.916;2023-08-07T14:45:45;4.15;;;1.88;;